sensor_id;sensor_type;location;lat;lon;timestamp;temperature;humidity
5508;DHT22;2776;51.046;6.772;2023-12-20T00:02:16;8.40;99.90
5508;DHT22;2776;51.046;6.772;2023-12-20T00:04:43;8.40;99.90
5508;DHT22;2776;51.046;6.772;2023-12-20T00:07:10;8.40;99.90
5508;DHT22;2776;51.046;6.772;2023-12-20T00:09:37;8.30;99.90
5508;DHT22;2776;51.046;6.772;2023-12-20T00:12:04;8.20;99.90
5508;DHT22;2776;51.046;6.772;2023-12-20T00:14:31;8.10;99.90
5508;DHT22;2776;51.046;6.772;2023-12-20T00:16:57;8.10;99.90
5508;DHT22;2776;51.046;6.772;2023-12-20T00:19:25;8.10;99.90
5508;DHT22;2776;51.046;6.772;2023-12-20T00:21:52;8.10;99.90
5508;DHT22;2776;51.046;6.772;2023-12-20T00:24:19;8.00;99.90
5508;DHT22;2776;51.046;6.772;2023-12-20T00:26:46;8.00;99.90
5508;DHT22;2776;51.046;6.772;2023-12-20T00:29:12;7.90;99.90
5508;DHT22;2776;51.046;6.772;2023-12-20T00:31:39;7.90;99.90
5508;DHT22;2776;51.046;6.772;2023-12-20T00:34:06;7.80;99.90
5508;DHT22;2776;51.046;6.772;2023-12-20T00:36:34;7.80;99.90
5508;DHT22;2776;51.046;6.772;2023-12-20T00:39:00;7.70;99.90
5508;DHT22;2776;51.046;6.772;2023-12-20T00:41:27;7.70;99.90
5508;DHT22;2776;51.046;6.772;2023-12-20T00:43:54;7.70;99.90
5508;DHT22;2776;51.046;6.772;2023-12-20T01:06:35;7.30;99.90
5508;DHT22;2776;51.046;6.772;2023-12-20T01:09:02;7.20;99.90
5508;DHT22;2776;51.046;6.772;2023-12-20T01:11:29;7.20;99.90
5508;DHT22;2776;51.046;6.772;2023-12-20T01:13:55;7.10;99.90
5508;DHT22;2776;51.046;6.772;2023-12-20T01:16:22;7.50;99.90
5508;DHT22;2776;51.046;6.772;2023-12-20T01:18:49;7.30;99.90
5508;DHT22;2776;51.046;6.772;2023-12-20T01:21:15;7.40;99.90
5508;DHT22;2776;51.046;6.772;2023-12-20T01:23:43;7.30;99.90
5508;DHT22;2776;51.046;6.772;2023-12-20T01:26:10;7.40;99.90
5508;DHT22;2776;51.046;6.772;2023-12-20T01:31:05;7.10;99.90
5508;DHT22;2776;51.046;6.772;2023-12-20T01:33:31;7.30;99.90
5508;DHT22;2776;51.046;6.772;2023-12-20T01:35:58;7.30;99.90
5508;DHT22;2776;51.046;6.772;2023-12-20T01:38:25;6.80;99.90
5508;DHT22;2776;51.046;6.772;2023-12-20T01:40:53;7.10;99.90
5508;DHT22;2776;51.046;6.772;2023-12-20T01:43:19;7.00;99.90
5508;DHT22;2776;51.046;6.772;2023-12-20T01:45:46;7.00;99.90
5508;DHT22;2776;51.046;6.772;2023-12-20T01:48:15;7.00;99.90
5508;DHT22;2776;51.046;6.772;2023-12-20T01:50:43;6.90;99.90
5508;DHT22;2776;51.046;6.772;2023-12-20T01:53:12;6.80;99.90
5508;DHT22;2776;51.046;6.772;2023-12-20T01:55:39;6.90;99.90
5508;DHT22;2776;51.046;6.772;2023-12-20T01:58:09;6.80;99.90
5508;DHT22;2776;51.046;6.772;2023-12-20T02:00:36;6.80;99.90
5508;DHT22;2776;51.046;6.772;2023-12-20T02:03:03;6.60;99.90
5508;DHT22;2776;51.046;6.772;2023-12-20T02:05:30;6.60;99.90
5508;DHT22;2776;51.046;6.772;2023-12-20T02:07:57;6.50;99.90
5508;DHT22;2776;51.046;6.772;2023-12-20T02:10:25;6.40;99.90
5508;DHT22;2776;51.046;6.772;2023-12-20T02:12:51;6.40;99.90
5508;DHT22;2776;51.046;6.772;2023-12-20T02:15:19;6.30;99.90
5508;DHT22;2776;51.046;6.772;2023-12-20T02:17:47;6.30;99.90
5508;DHT22;2776;51.046;6.772;2023-12-20T02:20:14;6.30;99.90
5508;DHT22;2776;51.046;6.772;2023-12-20T02:22:42;6.20;99.90
5508;DHT22;2776;51.046;6.772;2023-12-20T02:25:08;6.20;99.90
5508;DHT22;2776;51.046;6.772;2023-12-20T02:27:34;6.20;99.90
5508;DHT22;2776;51.046;6.772;2023-12-20T02:30:02;6.20;99.90
5508;DHT22;2776;51.046;6.772;2023-12-20T02:32:29;6.20;99.90
5508;DHT22;2776;51.046;6.772;2023-12-20T02:34:56;6.10;99.90
5508;DHT22;2776;51.046;6.772;2023-12-20T02:37:23;6.10;99.90
5508;DHT22;2776;51.046;6.772;2023-12-20T02:39:51;6.10;99.90
5508;DHT22;2776;51.046;6.772;2023-12-20T02:42:17;6.20;99.90
5508;DHT22;2776;51.046;6.772;2023-12-20T02:44:44;6.20;99.90
5508;DHT22;2776;51.046;6.772;2023-12-20T02:47:11;6.30;99.90
5508;DHT22;2776;51.046;6.772;2023-12-20T02:49:37;6.30;99.90
5508;DHT22;2776;51.046;6.772;2023-12-20T02:52:05;6.30;99.90
5508;DHT22;2776;51.046;6.772;2023-12-20T02:54:31;6.30;99.90
5508;DHT22;2776;51.046;6.772;2023-12-20T02:56:59;6.30;99.90
5508;DHT22;2776;51.046;6.772;2023-12-20T02:59:26;6.30;99.90
5508;DHT22;2776;51.046;6.772;2023-12-20T03:01:53;6.40;99.90
5508;DHT22;2776;51.046;6.772;2023-12-20T03:04:19;6.90;99.90
5508;DHT22;2776;51.046;6.772;2023-12-20T03:06:46;6.40;99.90
5508;DHT22;2776;51.046;6.772;2023-12-20T03:09:13;6.50;99.90
5508;DHT22;2776;51.046;6.772;2023-12-20T03:11:39;6.60;99.90
5508;DHT22;2776;51.046;6.772;2023-12-20T03:14:07;6.50;99.90
5508;DHT22;2776;51.046;6.772;2023-12-20T03:16:34;6.50;99.90
5508;DHT22;2776;51.046;6.772;2023-12-20T03:19:01;6.50;99.90
5508;DHT22;2776;51.046;6.772;2023-12-20T03:21:27;6.40;99.90
5508;DHT22;2776;51.046;6.772;2023-12-20T03:23:54;6.40;99.90
5508;DHT22;2776;51.046;6.772;2023-12-20T03:26:21;6.40;99.90
5508;DHT22;2776;51.046;6.772;2023-12-20T03:28:48;6.60;99.90
5508;DHT22;2776;51.046;6.772;2023-12-20T03:31:16;6.30;99.90
5508;DHT22;2776;51.046;6.772;2023-12-20T03:33:43;6.30;99.90
5508;DHT22;2776;51.046;6.772;2023-12-20T03:36:10;6.30;99.90
5508;DHT22;2776;51.046;6.772;2023-12-20T03:38:36;6.30;99.90
5508;DHT22;2776;51.046;6.772;2023-12-20T03:41:04;6.30;99.90
5508;DHT22;2776;51.046;6.772;2023-12-20T03:43:30;6.30;99.90
5508;DHT22;2776;51.046;6.772;2023-12-20T03:45:57;6.40;99.90
5508;DHT22;2776;51.046;6.772;2023-12-20T03:48:26;6.20;99.90
5508;DHT22;2776;51.046;6.772;2023-12-20T03:50:53;6.30;99.90
5508;DHT22;2776;51.046;6.772;2023-12-20T03:53:19;6.30;99.90
5508;DHT22;2776;51.046;6.772;2023-12-20T03:55:45;5.50;99.90
5508;DHT22;2776;51.046;6.772;2023-12-20T03:58:12;6.40;99.90
5508;DHT22;2776;51.046;6.772;2023-12-20T04:00:39;6.30;99.90
5508;DHT22;2776;51.046;6.772;2023-12-20T04:03:06;6.30;99.90
5508;DHT22;2776;51.046;6.772;2023-12-20T04:05:34;6.30;99.90
5508;DHT22;2776;51.046;6.772;2023-12-20T04:08:01;6.30;99.90
5508;DHT22;2776;51.046;6.772;2023-12-20T04:10:28;6.40;99.90
5508;DHT22;2776;51.046;6.772;2023-12-20T04:12:55;6.40;99.90
5508;DHT22;2776;51.046;6.772;2023-12-20T04:15:22;6.40;99.90
5508;DHT22;2776;51.046;6.772;2023-12-20T04:17:48;6.40;99.90
5508;DHT22;2776;51.046;6.772;2023-12-20T04:20:15;6.40;99.90
5508;DHT22;2776;51.046;6.772;2023-12-20T04:22:43;6.40;99.90
5508;DHT22;2776;51.046;6.772;2023-12-20T04:25:10;6.30;99.90
5508;DHT22;2776;51.046;6.772;2023-12-20T04:27:36;6.20;99.90
5508;DHT22;2776;51.046;6.772;2023-12-20T04:30:04;6.30;99.90
5508;DHT22;2776;51.046;6.772;2023-12-20T04:32:31;6.30;99.90
5508;DHT22;2776;51.046;6.772;2023-12-20T04:34:58;6.30;99.90
5508;DHT22;2776;51.046;6.772;2023-12-20T04:37:24;6.20;99.90
5508;DHT22;2776;51.046;6.772;2023-12-20T04:39:53;6.20;99.90
5508;DHT22;2776;51.046;6.772;2023-12-20T04:42:20;6.20;99.90
5508;DHT22;2776;51.046;6.772;2023-12-20T04:44:46;6.20;99.90
5508;DHT22;2776;51.046;6.772;2023-12-20T04:47:13;6.20;99.90
5508;DHT22;2776;51.046;6.772;2023-12-20T04:49:40;6.10;99.90
5508;DHT22;2776;51.046;6.772;2023-12-20T04:52:06;6.10;99.90
5508;DHT22;2776;51.046;6.772;2023-12-20T04:54:33;6.10;99.90
5508;DHT22;2776;51.046;6.772;2023-12-20T04:57:01;6.10;99.90
5508;DHT22;2776;51.046;6.772;2023-12-20T04:59:28;6.20;99.90
5508;DHT22;2776;51.046;6.772;2023-12-20T05:01:55;6.20;99.90
5508;DHT22;2776;51.046;6.772;2023-12-20T05:04:21;6.10;99.90
5508;DHT22;2776;51.046;6.772;2023-12-20T05:06:48;6.20;99.90
5508;DHT22;2776;51.046;6.772;2023-12-20T05:09:15;6.10;99.90
5508;DHT22;2776;51.046;6.772;2023-12-20T05:11:43;6.10;99.90
5508;DHT22;2776;51.046;6.772;2023-12-20T05:14:11;6.00;99.90
5508;DHT22;2776;51.046;6.772;2023-12-20T05:16:37;6.00;99.90
5508;DHT22;2776;51.046;6.772;2023-12-20T05:19:04;6.10;99.90
5508;DHT22;2776;51.046;6.772;2023-12-20T05:21:32;6.10;99.90
5508;DHT22;2776;51.046;6.772;2023-12-20T05:23:59;6.00;99.90
5508;DHT22;2776;51.046;6.772;2023-12-20T05:26:26;6.00;99.90
5508;DHT22;2776;51.046;6.772;2023-12-20T05:28:52;6.10;99.90
5508;DHT22;2776;51.046;6.772;2023-12-20T05:31:20;6.00;99.90
5508;DHT22;2776;51.046;6.772;2023-12-20T05:33:47;5.90;99.90
5508;DHT22;2776;51.046;6.772;2023-12-20T05:36:14;5.90;99.90
5508;DHT22;2776;51.046;6.772;2023-12-20T05:41:08;5.80;99.90
5508;DHT22;2776;51.046;6.772;2023-12-20T05:43:35;6.10;99.90
5508;DHT22;2776;51.046;6.772;2023-12-20T05:46:01;5.90;99.90
5508;DHT22;2776;51.046;6.772;2023-12-20T05:48:29;5.90;99.90
5508;DHT22;2776;51.046;6.772;2023-12-20T05:50:56;6.00;99.90
5508;DHT22;2776;51.046;6.772;2023-12-20T05:53:23;6.00;99.90
5508;DHT22;2776;51.046;6.772;2023-12-20T05:55:50;6.00;99.90
5508;DHT22;2776;51.046;6.772;2023-12-20T05:58:17;6.00;99.90
5508;DHT22;2776;51.046;6.772;2023-12-20T06:00:44;6.20;99.90
5508;DHT22;2776;51.046;6.772;2023-12-20T06:03:10;6.10;99.90
5508;DHT22;2776;51.046;6.772;2023-12-20T06:05:39;5.90;99.90
5508;DHT22;2776;51.046;6.772;2023-12-20T06:08:06;6.20;99.90
5508;DHT22;2776;51.046;6.772;2023-12-20T06:10:33;6.60;99.90
5508;DHT22;2776;51.046;6.772;2023-12-20T06:12:59;6.20;99.90
5508;DHT22;2776;51.046;6.772;2023-12-20T06:15:26;6.30;99.90
5508;DHT22;2776;51.046;6.772;2023-12-20T06:17:53;6.30;99.90
5508;DHT22;2776;51.046;6.772;2023-12-20T06:20:19;6.30;99.90
5508;DHT22;2776;51.046;6.772;2023-12-20T06:22:48;6.40;99.90
5508;DHT22;2776;51.046;6.772;2023-12-20T06:25:14;6.40;99.90
5508;DHT22;2776;51.046;6.772;2023-12-20T06:27:41;6.40;99.90
5508;DHT22;2776;51.046;6.772;2023-12-20T06:30:08;6.40;99.90
5508;DHT22;2776;51.046;6.772;2023-12-20T06:32:35;6.50;99.90
5508;DHT22;2776;51.046;6.772;2023-12-20T06:35:03;6.40;99.90
5508;DHT22;2776;51.046;6.772;2023-12-20T06:37:31;6.50;99.90
5508;DHT22;2776;51.046;6.772;2023-12-20T06:39:59;6.50;99.90
5508;DHT22;2776;51.046;6.772;2023-12-20T06:42:26;6.50;99.90
5508;DHT22;2776;51.046;6.772;2023-12-20T06:44:52;6.60;99.90
5508;DHT22;2776;51.046;6.772;2023-12-20T06:47:19;6.60;99.90
5508;DHT22;2776;51.046;6.772;2023-12-20T06:49:46;6.60;99.90
5508;DHT22;2776;51.046;6.772;2023-12-20T06:52:12;6.50;99.90
5508;DHT22;2776;51.046;6.772;2023-12-20T06:54:39;6.60;99.90
5508;DHT22;2776;51.046;6.772;2023-12-20T06:57:07;6.60;99.90
5508;DHT22;2776;51.046;6.772;2023-12-20T06:59:38;6.60;99.90
5508;DHT22;2776;51.046;6.772;2023-12-20T07:02:05;6.60;99.90
5508;DHT22;2776;51.046;6.772;2023-12-20T07:04:32;6.70;99.90
5508;DHT22;2776;51.046;6.772;2023-12-20T07:06:59;6.70;99.90
5508;DHT22;2776;51.046;6.772;2023-12-20T07:09:27;6.70;99.90
5508;DHT22;2776;51.046;6.772;2023-12-20T07:11:54;6.70;99.90
5508;DHT22;2776;51.046;6.772;2023-12-20T07:14:22;6.70;99.90
5508;DHT22;2776;51.046;6.772;2023-12-20T07:16:49;6.80;99.90
5508;DHT22;2776;51.046;6.772;2023-12-20T07:19:16;6.70;99.90
5508;DHT22;2776;51.046;6.772;2023-12-20T07:21:42;6.70;99.90
5508;DHT22;2776;51.046;6.772;2023-12-20T07:24:09;6.70;99.90
5508;DHT22;2776;51.046;6.772;2023-12-20T07:26:36;6.70;99.90
5508;DHT22;2776;51.046;6.772;2023-12-20T07:29:04;6.70;99.90
5508;DHT22;2776;51.046;6.772;2023-12-20T07:31:32;6.70;99.90
5508;DHT22;2776;51.046;6.772;2023-12-20T07:33:59;6.70;99.90
5508;DHT22;2776;51.046;6.772;2023-12-20T07:36:25;6.70;99.90
5508;DHT22;2776;51.046;6.772;2023-12-20T07:38:52;6.70;99.90
5508;DHT22;2776;51.046;6.772;2023-12-20T07:41:19;6.70;99.90
5508;DHT22;2776;51.046;6.772;2023-12-20T07:43:46;6.70;99.90
5508;DHT22;2776;51.046;6.772;2023-12-20T07:46:12;6.70;99.90
5508;DHT22;2776;51.046;6.772;2023-12-20T07:48:40;6.70;99.90
5508;DHT22;2776;51.046;6.772;2023-12-20T07:51:07;6.70;99.90
5508;DHT22;2776;51.046;6.772;2023-12-20T07:53:35;6.70;99.90
5508;DHT22;2776;51.046;6.772;2023-12-20T07:56:12;6.70;99.90
5508;DHT22;2776;51.046;6.772;2023-12-20T07:58:39;6.60;99.90
5508;DHT22;2776;51.046;6.772;2023-12-20T08:01:06;6.60;99.90
5508;DHT22;2776;51.046;6.772;2023-12-20T08:03:33;6.60;99.90
5508;DHT22;2776;51.046;6.772;2023-12-20T08:06:02;6.60;99.90
5508;DHT22;2776;51.046;6.772;2023-12-20T08:08:29;6.60;99.90
5508;DHT22;2776;51.046;6.772;2023-12-20T08:10:55;6.60;99.90
5508;DHT22;2776;51.046;6.772;2023-12-20T08:13:24;6.70;99.90
5508;DHT22;2776;51.046;6.772;2023-12-20T08:15:51;6.70;99.90
5508;DHT22;2776;51.046;6.772;2023-12-20T08:18:18;6.60;99.90
5508;DHT22;2776;51.046;6.772;2023-12-20T08:20:45;6.60;99.90
5508;DHT22;2776;51.046;6.772;2023-12-20T08:23:14;6.60;99.90
5508;DHT22;2776;51.046;6.772;2023-12-20T08:25:41;6.60;99.90
5508;DHT22;2776;51.046;6.772;2023-12-20T08:28:08;6.70;99.90
5508;DHT22;2776;51.046;6.772;2023-12-20T08:30:34;6.60;99.90
5508;DHT22;2776;51.046;6.772;2023-12-20T08:33:01;6.60;99.90
5508;DHT22;2776;51.046;6.772;2023-12-20T08:35:28;6.70;99.90
5508;DHT22;2776;51.046;6.772;2023-12-20T08:37:55;6.70;99.90
5508;DHT22;2776;51.046;6.772;2023-12-20T08:40:23;6.70;99.90
5508;DHT22;2776;51.046;6.772;2023-12-20T08:42:49;6.70;99.90
5508;DHT22;2776;51.046;6.772;2023-12-20T08:45:16;6.70;99.90
5508;DHT22;2776;51.046;6.772;2023-12-20T08:47:43;6.70;99.90
5508;DHT22;2776;51.046;6.772;2023-12-20T08:50:10;6.70;99.90
5508;DHT22;2776;51.046;6.772;2023-12-20T08:52:37;6.70;99.90
5508;DHT22;2776;51.046;6.772;2023-12-20T08:55:05;6.70;99.90
5508;DHT22;2776;51.046;6.772;2023-12-20T08:57:33;6.80;99.90
5508;DHT22;2776;51.046;6.772;2023-12-20T09:00:00;6.80;99.90
5508;DHT22;2776;51.046;6.772;2023-12-20T09:02:26;6.80;99.90
5508;DHT22;2776;51.046;6.772;2023-12-20T09:04:54;6.80;99.90
5508;DHT22;2776;51.046;6.772;2023-12-20T09:07:21;6.90;99.90
5508;DHT22;2776;51.046;6.772;2023-12-20T09:09:48;6.90;99.90
5508;DHT22;2776;51.046;6.772;2023-12-20T09:12:15;6.90;99.90
5508;DHT22;2776;51.046;6.772;2023-12-20T09:14:43;7.00;99.90
5508;DHT22;2776;51.046;6.772;2023-12-20T09:17:10;6.90;99.90
5508;DHT22;2776;51.046;6.772;2023-12-20T09:19:37;6.90;99.90
5508;DHT22;2776;51.046;6.772;2023-12-20T09:22:04;7.00;99.90
5508;DHT22;2776;51.046;6.772;2023-12-20T09:24:31;6.90;99.90
5508;DHT22;2776;51.046;6.772;2023-12-20T09:26:58;7.00;99.90
5508;DHT22;2776;51.046;6.772;2023-12-20T09:29:24;7.00;99.90
5508;DHT22;2776;51.046;6.772;2023-12-20T09:31:52;7.00;99.90
5508;DHT22;2776;51.046;6.772;2023-12-20T09:34:19;7.10;99.90
5508;DHT22;2776;51.046;6.772;2023-12-20T09:36:46;7.10;99.90
5508;DHT22;2776;51.046;6.772;2023-12-20T09:39:13;7.00;99.90
5508;DHT22;2776;51.046;6.772;2023-12-20T09:41:43;7.00;99.90
5508;DHT22;2776;51.046;6.772;2023-12-20T09:44:14;7.10;99.90
5508;DHT22;2776;51.046;6.772;2023-12-20T09:46:43;7.10;99.90
5508;DHT22;2776;51.046;6.772;2023-12-20T09:49:13;7.00;99.90
5508;DHT22;2776;51.046;6.772;2023-12-20T09:51:40;7.00;99.90
5508;DHT22;2776;51.046;6.772;2023-12-20T09:54:08;7.00;99.90
5508;DHT22;2776;51.046;6.772;2023-12-20T09:56:37;7.10;99.90
5508;DHT22;2776;51.046;6.772;2023-12-20T09:59:04;7.10;99.90
5508;DHT22;2776;51.046;6.772;2023-12-20T10:01:32;7.00;99.90
5508;DHT22;2776;51.046;6.772;2023-12-20T10:04:08;7.00;99.90
5508;DHT22;2776;51.046;6.772;2023-12-20T10:13:26;7.10;99.90
5508;DHT22;2776;51.046;6.772;2023-12-20T10:16:27;7.10;99.90
5508;DHT22;2776;51.046;6.772;2023-12-20T10:19:23;7.20;99.90
5508;DHT22;2776;51.046;6.772;2023-12-20T10:22:10;7.20;99.90
5508;DHT22;2776;51.046;6.772;2023-12-20T10:25:02;7.10;99.90
5508;DHT22;2776;51.046;6.772;2023-12-20T10:31:05;7.90;99.90
5508;DHT22;2776;51.046;6.772;2023-12-20T10:39:38;7.20;99.90
5508;DHT22;2776;51.046;6.772;2023-12-20T10:42:22;7.30;99.90
5508;DHT22;2776;51.046;6.772;2023-12-20T10:44:49;7.30;99.90
5508;DHT22;2776;51.046;6.772;2023-12-20T10:47:19;7.30;99.90
5508;DHT22;2776;51.046;6.772;2023-12-20T10:49:46;7.40;99.90
5508;DHT22;2776;51.046;6.772;2023-12-20T10:52:13;7.40;99.90
5508;DHT22;2776;51.046;6.772;2023-12-20T10:54:40;7.40;99.90
5508;DHT22;2776;51.046;6.772;2023-12-20T10:57:07;7.40;99.90
5508;DHT22;2776;51.046;6.772;2023-12-20T10:59:36;7.40;99.90
5508;DHT22;2776;51.046;6.772;2023-12-20T11:02:04;7.40;99.90
5508;DHT22;2776;51.046;6.772;2023-12-20T11:04:36;7.30;99.90
5508;DHT22;2776;51.046;6.772;2023-12-20T11:07:10;7.40;99.90
5508;DHT22;2776;51.046;6.772;2023-12-20T11:09:45;7.40;99.90
5508;DHT22;2776;51.046;6.772;2023-12-20T11:12:17;7.40;99.90
5508;DHT22;2776;51.046;6.772;2023-12-20T11:14:47;7.50;99.90
5508;DHT22;2776;51.046;6.772;2023-12-20T11:17:14;7.40;99.90
5508;DHT22;2776;51.046;6.772;2023-12-20T11:20:06;7.40;99.90
5508;DHT22;2776;51.046;6.772;2023-12-20T11:22:35;7.50;99.90
5508;DHT22;2776;51.046;6.772;2023-12-20T11:25:04;7.50;99.90
5508;DHT22;2776;51.046;6.772;2023-12-20T11:27:33;7.60;99.90
5508;DHT22;2776;51.046;6.772;2023-12-20T11:30:02;7.70;99.90
5508;DHT22;2776;51.046;6.772;2023-12-20T11:32:33;7.60;99.90
5508;DHT22;2776;51.046;6.772;2023-12-20T11:35:01;7.60;99.90
5508;DHT22;2776;51.046;6.772;2023-12-20T11:37:43;7.60;99.90
5508;DHT22;2776;51.046;6.772;2023-12-20T11:40:15;7.60;99.90
5508;DHT22;2776;51.046;6.772;2023-12-20T11:42:43;7.60;99.90
5508;DHT22;2776;51.046;6.772;2023-12-20T11:45:10;7.60;99.90
5508;DHT22;2776;51.046;6.772;2023-12-20T11:47:40;7.50;99.90
5508;DHT22;2776;51.046;6.772;2023-12-20T11:50:07;7.50;99.90
5508;DHT22;2776;51.046;6.772;2023-12-20T11:52:35;7.50;99.90
5508;DHT22;2776;51.046;6.772;2023-12-20T11:55:03;7.50;99.90
5508;DHT22;2776;51.046;6.772;2023-12-20T11:57:30;7.50;99.90
5508;DHT22;2776;51.046;6.772;2023-12-20T11:59:57;7.50;99.90
5508;DHT22;2776;51.046;6.772;2023-12-20T12:02:23;7.50;99.90
5508;DHT22;2776;51.046;6.772;2023-12-20T12:04:50;7.50;99.90
5508;DHT22;2776;51.046;6.772;2023-12-20T12:07:17;7.50;99.90
5508;DHT22;2776;51.046;6.772;2023-12-20T12:09:45;7.60;99.90
5508;DHT22;2776;51.046;6.772;2023-12-20T12:12:14;7.50;99.90
5508;DHT22;2776;51.046;6.772;2023-12-20T12:14:41;7.50;99.90
5508;DHT22;2776;51.046;6.772;2023-12-20T12:17:10;7.50;99.90
5508;DHT22;2776;51.046;6.772;2023-12-20T12:19:38;7.50;99.90
5508;DHT22;2776;51.046;6.772;2023-12-20T12:22:05;7.50;99.90
5508;DHT22;2776;51.046;6.772;2023-12-20T12:24:34;7.40;99.90
5508;DHT22;2776;51.046;6.772;2023-12-20T12:27:00;7.40;99.90
5508;DHT22;2776;51.046;6.772;2023-12-20T12:29:28;7.40;99.90
5508;DHT22;2776;51.046;6.772;2023-12-20T12:31:55;7.40;99.90
5508;DHT22;2776;51.046;6.772;2023-12-20T12:34:22;7.40;99.90
5508;DHT22;2776;51.046;6.772;2023-12-20T12:36:49;7.50;99.90
5508;DHT22;2776;51.046;6.772;2023-12-20T12:39:17;7.50;99.90
5508;DHT22;2776;51.046;6.772;2023-12-20T12:41:44;7.50;99.90
5508;DHT22;2776;51.046;6.772;2023-12-20T12:44:11;7.50;99.90
5508;DHT22;2776;51.046;6.772;2023-12-20T12:46:39;7.50;99.90
5508;DHT22;2776;51.046;6.772;2023-12-20T12:49:06;7.50;99.90
5508;DHT22;2776;51.046;6.772;2023-12-20T12:51:32;7.40;99.90
5508;DHT22;2776;51.046;6.772;2023-12-20T12:53:59;7.40;99.90
5508;DHT22;2776;51.046;6.772;2023-12-20T12:56:26;7.40;99.90
5508;DHT22;2776;51.046;6.772;2023-12-20T12:58:52;7.80;99.90
5508;DHT22;2776;51.046;6.772;2023-12-20T13:01:20;7.50;99.90
5508;DHT22;2776;51.046;6.772;2023-12-20T13:03:48;7.60;99.90
5508;DHT22;2776;51.046;6.772;2023-12-20T13:06:15;7.60;99.90
5508;DHT22;2776;51.046;6.772;2023-12-20T13:08:43;7.70;99.90
5508;DHT22;2776;51.046;6.772;2023-12-20T13:11:09;7.80;99.90
5508;DHT22;2776;51.046;6.772;2023-12-20T13:13:36;7.80;99.90
5508;DHT22;2776;51.046;6.772;2023-12-20T13:16:04;7.90;99.90
5508;DHT22;2776;51.046;6.772;2023-12-20T13:18:30;7.90;99.90
5508;DHT22;2776;51.046;6.772;2023-12-20T13:20:58;7.90;99.90
5508;DHT22;2776;51.046;6.772;2023-12-20T13:23:25;7.90;99.90
5508;DHT22;2776;51.046;6.772;2023-12-20T13:25:52;7.80;99.90
5508;DHT22;2776;51.046;6.772;2023-12-20T13:28:18;7.80;99.90
5508;DHT22;2776;51.046;6.772;2023-12-20T13:30:45;7.80;99.90
5508;DHT22;2776;51.046;6.772;2023-12-20T13:33:12;7.70;99.90
5508;DHT22;2776;51.046;6.772;2023-12-20T13:35:38;7.70;99.90
5508;DHT22;2776;51.046;6.772;2023-12-20T13:38:07;7.80;99.90
5508;DHT22;2776;51.046;6.772;2023-12-20T13:40:34;7.70;99.90
5508;DHT22;2776;51.046;6.772;2023-12-20T13:43:00;7.70;99.90
5508;DHT22;2776;51.046;6.772;2023-12-20T13:45:28;7.80;99.90
5508;DHT22;2776;51.046;6.772;2023-12-20T13:47:55;7.80;99.90
5508;DHT22;2776;51.046;6.772;2023-12-20T13:50:21;7.70;99.90
5508;DHT22;2776;51.046;6.772;2023-12-20T13:52:48;7.70;99.90
5508;DHT22;2776;51.046;6.772;2023-12-20T13:55:16;7.70;99.90
5508;DHT22;2776;51.046;6.772;2023-12-20T13:57:43;7.70;99.90
5508;DHT22;2776;51.046;6.772;2023-12-20T14:00:11;7.60;99.90
5508;DHT22;2776;51.046;6.772;2023-12-20T14:02:40;7.60;99.90
5508;DHT22;2776;51.046;6.772;2023-12-20T14:05:07;7.60;99.90
5508;DHT22;2776;51.046;6.772;2023-12-20T14:07:34;7.70;99.90
5508;DHT22;2776;51.046;6.772;2023-12-20T14:10:01;7.70;99.90
5508;DHT22;2776;51.046;6.772;2023-12-20T14:12:29;7.60;99.90
5508;DHT22;2776;51.046;6.772;2023-12-20T14:14:56;7.70;99.90
5508;DHT22;2776;51.046;6.772;2023-12-20T14:17:22;7.70;99.90
5508;DHT22;2776;51.046;6.772;2023-12-20T14:19:49;7.70;99.90
5508;DHT22;2776;51.046;6.772;2023-12-20T14:22:17;7.70;99.90
5508;DHT22;2776;51.046;6.772;2023-12-20T14:24:44;7.80;99.90
5508;DHT22;2776;51.046;6.772;2023-12-20T14:27:11;7.80;99.90
5508;DHT22;2776;51.046;6.772;2023-12-20T14:29:40;7.80;99.90
5508;DHT22;2776;51.046;6.772;2023-12-20T14:32:06;7.80;99.90
5508;DHT22;2776;51.046;6.772;2023-12-20T14:34:33;7.90;99.90
5508;DHT22;2776;51.046;6.772;2023-12-20T14:37:00;7.90;99.90
5508;DHT22;2776;51.046;6.772;2023-12-20T14:39:26;7.90;99.90
5508;DHT22;2776;51.046;6.772;2023-12-20T14:41:53;7.80;99.90
5508;DHT22;2776;51.046;6.772;2023-12-20T14:44:20;7.90;99.90
5508;DHT22;2776;51.046;6.772;2023-12-20T14:46:48;7.90;99.90
5508;DHT22;2776;51.046;6.772;2023-12-20T14:49:15;7.90;99.90
5508;DHT22;2776;51.046;6.772;2023-12-20T14:51:44;8.00;99.90
5508;DHT22;2776;51.046;6.772;2023-12-20T14:54:12;8.00;99.90
5508;DHT22;2776;51.046;6.772;2023-12-20T14:56:39;8.00;99.90
5508;DHT22;2776;51.046;6.772;2023-12-20T14:59:05;7.80;99.90
5508;DHT22;2776;51.046;6.772;2023-12-20T15:01:33;8.00;99.90
5508;DHT22;2776;51.046;6.772;2023-12-20T15:04:01;8.00;99.90
5508;DHT22;2776;51.046;6.772;2023-12-20T15:06:29;8.00;99.90
5508;DHT22;2776;51.046;6.772;2023-12-20T15:08:57;7.90;99.90
5508;DHT22;2776;51.046;6.772;2023-12-20T15:11:24;8.00;99.90
5508;DHT22;2776;51.046;6.772;2023-12-20T15:13:50;8.00;99.90
5508;DHT22;2776;51.046;6.772;2023-12-20T15:16:21;8.00;99.90
5508;DHT22;2776;51.046;6.772;2023-12-20T15:18:48;7.80;99.90
5508;DHT22;2776;51.046;6.772;2023-12-20T15:21:17;7.90;99.90
5508;DHT22;2776;51.046;6.772;2023-12-20T15:23:43;7.90;99.90
5508;DHT22;2776;51.046;6.772;2023-12-20T15:26:18;8.00;99.90
5508;DHT22;2776;51.046;6.772;2023-12-20T15:28:44;7.80;99.90
5508;DHT22;2776;51.046;6.772;2023-12-20T15:31:11;7.80;99.90
5508;DHT22;2776;51.046;6.772;2023-12-20T15:33:39;7.90;99.90
5508;DHT22;2776;51.046;6.772;2023-12-20T15:36:06;7.90;99.90
5508;DHT22;2776;51.046;6.772;2023-12-20T15:38:34;7.80;99.90
5508;DHT22;2776;51.046;6.772;2023-12-20T15:41:01;7.80;99.90
5508;DHT22;2776;51.046;6.772;2023-12-20T15:43:28;7.80;99.90
5508;DHT22;2776;51.046;6.772;2023-12-20T15:45:55;7.80;99.90
5508;DHT22;2776;51.046;6.772;2023-12-20T15:48:21;7.80;99.90
5508;DHT22;2776;51.046;6.772;2023-12-20T15:50:53;7.80;99.90
5508;DHT22;2776;51.046;6.772;2023-12-20T15:53:20;7.80;99.90
5508;DHT22;2776;51.046;6.772;2023-12-20T15:55:48;7.80;99.90
5508;DHT22;2776;51.046;6.772;2023-12-20T15:58:14;7.70;99.90
5508;DHT22;2776;51.046;6.772;2023-12-20T16:00:41;7.70;99.90
5508;DHT22;2776;51.046;6.772;2023-12-20T16:03:08;7.70;99.90
5508;DHT22;2776;51.046;6.772;2023-12-20T16:05:34;7.70;99.90
5508;DHT22;2776;51.046;6.772;2023-12-20T16:08:01;7.70;99.90
5508;DHT22;2776;51.046;6.772;2023-12-20T16:10:28;7.70;99.90
5508;DHT22;2776;51.046;6.772;2023-12-20T16:12:56;7.70;99.90
5508;DHT22;2776;51.046;6.772;2023-12-20T16:15:23;7.60;99.90
5508;DHT22;2776;51.046;6.772;2023-12-20T16:17:50;7.70;99.90
5508;DHT22;2776;51.046;6.772;2023-12-20T16:20:17;7.60;99.90
5508;DHT22;2776;51.046;6.772;2023-12-20T16:22:43;7.60;99.90
5508;DHT22;2776;51.046;6.772;2023-12-20T16:25:10;7.60;99.90
5508;DHT22;2776;51.046;6.772;2023-12-20T16:27:37;7.60;99.90
5508;DHT22;2776;51.046;6.772;2023-12-20T16:30:06;7.60;99.90
5508;DHT22;2776;51.046;6.772;2023-12-20T16:32:33;7.60;99.90
5508;DHT22;2776;51.046;6.772;2023-12-20T16:35:00;7.60;99.90
5508;DHT22;2776;51.046;6.772;2023-12-20T16:37:27;7.60;99.90
5508;DHT22;2776;51.046;6.772;2023-12-20T16:39:54;7.60;99.90
5508;DHT22;2776;51.046;6.772;2023-12-20T16:42:21;7.60;99.90
5508;DHT22;2776;51.046;6.772;2023-12-20T16:44:47;7.70;99.90
5508;DHT22;2776;51.046;6.772;2023-12-20T16:47:15;7.80;99.90
5508;DHT22;2776;51.046;6.772;2023-12-20T16:49:42;7.80;99.90
5508;DHT22;2776;51.046;6.772;2023-12-20T16:52:09;7.80;99.90
5508;DHT22;2776;51.046;6.772;2023-12-20T16:54:35;7.80;99.90
5508;DHT22;2776;51.046;6.772;2023-12-20T16:57:02;7.80;99.90
5508;DHT22;2776;51.046;6.772;2023-12-20T16:59:29;7.90;99.90
5508;DHT22;2776;51.046;6.772;2023-12-20T17:01:56;7.80;99.90